Time;durP1;ratioP1;P1;durP2;ratioP2;P2;SDS_P1;SDS_P2;PMS_P1;PMS_P2;Temp;Humidity;BMP_temperature;BMP_pressure;BME280_temperature;BME280_humidity;BME280_pressure;Samples;Min_cycle;Max_cycle;Signal;HPM_P1;HPM_P2
2022/08/09 00:01:13;;;;;;;2.20;1.10;;;;;;;22.55;nan;101072.31;5081884;28;20300;-64
2022/08/09 00:03:39;;;;;;;3.65;1.20;;;;;;;22.58;nan;101069.19;5082997;28;20119;-65
2022/08/09 00:06:04;;;;;;;4.28;1.13;;;;;;;22.63;nan;101065.84;5076305;28;20178;-64
2022/08/09 00:08:29;;;;;;;3.33;1.10;;;;;;;22.69;nan;101070.34;5082739;28;20052;-64
2022/08/09 00:10:55;;;;;;;2.63;1.40;;;;;;;22.72;nan;101071.81;5083997;28;20505;-64
2022/08/09 00:13:20;;;;;;;2.58;1.00;;;;;;;22.69;nan;101065.78;5079458;28;20335;-64
2022/08/09 00:15:45;;;;;;;3.50;1.30;;;;;;;22.62;nan;101062.31;5084730;28;20048;-64
2022/08/09 00:18:11;;;;;;;4.93;1.25;;;;;;;22.58;nan;101062.97;5082428;28;20278;-64
2022/08/09 00:20:36;;;;;;;1.30;1.00;;;;;;;22.49;nan;101062.41;5076142;28;20047;-64
2022/08/09 00:23:01;;;;;;;3.33;1.20;;;;;;;22.53;nan;101077.09;5081295;28;20786;-64
2022/08/09 00:25:26;;;;;;;2.10;1.30;;;;;;;22.46;nan;101066.34;5084652;28;20033;-64
2022/08/09 00:27:52;;;;;;;1.42;1.08;;;;;;;22.41;nan;101068.06;5085726;28;20044;-64
2022/08/09 00:30:17;;;;;;;3.10;1.15;;;;;;;22.36;nan;101059.81;5079718;28;20044;-64
2022/08/09 00:32:42;;;;;;;2.72;1.30;;;;;;;22.33;nan;101060.22;5083664;28;20481;-64
2022/08/09 00:35:08;;;;;;;2.90;1.00;;;;;;;22.27;nan;101057.34;5082641;28;20048;-64
2022/08/09 00:37:33;;;;;;;1.48;0.90;;;;;;;22.25;nan;101056.75;5081815;28;20678;-64
2022/08/09 00:39:59;;;;;;;3.05;1.27;;;;;;;22.17;nan;101061.53;5082163;28;20032;-64
2022/08/09 00:42:27;;;;;;;3.00;1.10;;;;;;;22.10;nan;101056.19;5079841;28;20050;-63
2022/08/09 00:44:53;;;;;;;3.10;1.23;;;;;;;22.06;nan;101046.88;5085190;28;20512;-64
2022/08/09 00:47:18;;;;;;;3.50;1.10;;;;;;;22.08;nan;101047.50;5087229;28;20035;-64
2022/08/09 00:49:43;;;;;;;2.03;1.00;;;;;;;22.05;nan;101046.06;5077664;28;20077;-64
2022/08/09 00:52:09;;;;;;;2.63;1.30;;;;;;;22.04;nan;101057.03;5084725;28;20286;-64
2022/08/09 00:54:34;;;;;;;3.83;1.17;;;;;;;22.04;nan;101049.78;5081213;28;20218;-64
2022/08/09 00:56:59;;;;;;;2.42;1.23;;;;;;;21.95;nan;101047.53;5080194;28;20158;-64
2022/08/09 00:59:25;;;;;;;3.10;1.25;;;;;;;21.91;nan;101046.34;5064632;28;20407;-62
2022/08/09 01:01:51;;;;;;;3.95;1.17;;;;;;;21.79;nan;101047.00;5077604;28;20452;-64
2022/08/09 01:04:22;;;;;;;3.83;1.27;;;;;;;21.76;nan;101050.13;5081408;28;20864;-64
2022/08/09 01:06:57;;;;;;;3.10;1.30;;;;;;;21.70;nan;101044.75;5081040;28;20064;-64
2022/08/09 01:09:42;;;;;;;2.50;1.20;;;;;;;21.63;nan;101048.28;5080821;28;20032;-64
2022/08/09 01:12:26;;;;;;;2.20;1.17;;;;;;;21.53;nan;101056.00;5078856;28;20056;-64
2022/08/09 01:15:07;;;;;;;4.53;1.13;;;;;;;21.50;nan;101053.72;5080941;28;20609;-64
2022/08/09 01:17:34;;;;;;;;;;;;;;;21.49;nan;101059.31;5085035;28;20058;-64
2022/08/09 01:20:05;;;;;;;2.20;1.10;;;;;;;21.47;nan;101061.38;5075914;28;19923;-64
2022/08/09 01:23:04;;;;;;;3.67;1.10;;;;;;;21.44;nan;101061.81;5076491;28;20123;-64
2022/08/09 01:25:54;;;;;;;1.60;1.10;;;;;;;21.37;nan;101051.03;5084810;28;20032;-64
2022/08/09 01:28:22;;;;;;;3.50;1.40;;;;;;;21.31;nan;101059.91;5074903;28;20040;-64
2022/08/09 01:30:50;;;;;;;3.35;1.20;;;;;;;21.34;nan;101063.03;5081932;28;20279;-64
2022/08/09 01:33:18;;;;;;;4.40;1.40;;;;;;;21.33;nan;101072.16;5080463;28;20141;-64
2022/08/09 01:35:55;;;;;;;1.83;1.17;;;;;;;21.33;nan;101064.09;5085622;28;20473;-64
2022/08/09 01:38:24;;;;;;;3.10;1.50;;;;;;;21.32;nan;101069.66;5079310;28;20039;-64
2022/08/09 01:41:00;;;;;;;7.32;1.50;;;;;;;21.28;nan;101061.16;5080053;28;20040;-64
2022/08/09 01:43:26;;;;;;;4.25;1.38;;;;;;;21.22;nan;101067.41;5077894;28;20105;-64
2022/08/09 01:45:53;;;;;;;2.90;1.38;;;;;;;21.18;nan;101069.66;5082709;28;20093;-63
2022/08/09 01:48:19;;;;;;;3.85;1.30;;;;;;;21.15;nan;101069.28;5079924;28;20464;-64
2022/08/09 01:50:51;;;;;;;3.65;1.20;;;;;;;21.17;nan;101073.41;5077250;28;20508;-64
2022/08/09 01:53:18;;;;;;;2.33;1.25;;;;;;;21.16;nan;101071.72;5074982;28;20089;-64
2022/08/09 01:55:45;;;;;;;3.67;1.30;;;;;;;21.07;nan;101072.16;5075992;28;20555;-64
2022/08/09 01:58:12;;;;;;;3.67;1.38;;;;;;;20.99;nan;101065.94;5078493;28;20117;-64
2022/08/09 02:00:39;;;;;;;2.92;1.10;;;;;;;20.90;nan;101075.25;5075532;28;20059;-64
2022/08/09 02:03:06;;;;;;;1.90;1.20;;;;;;;20.81;nan;101076.53;5071364;28;20020;-64
2022/08/09 02:05:33;;;;;;;2.38;1.30;;;;;;;20.72;nan;101075.88;5083209;28;20035;-64
2022/08/09 02:08:07;;;;;;;3.70;1.20;;;;;;;20.63;nan;101071.72;5076239;28;20551;-64
2022/08/09 02:10:36;;;;;;;2.40;1.20;;;;;;;20.60;nan;101076.72;5080652;28;20070;-63
2022/08/09 02:13:05;;;;;;;2.38;1.25;;;;;;;20.56;nan;101073.59;5077231;28;20075;-64
2022/08/09 02:15:34;;;;;;;2.03;1.20;;;;;;;20.50;nan;101077.06;5079533;28;20028;-63
2022/08/09 02:18:01;;;;;;;2.97;1.10;;;;;;;20.37;nan;101089.41;5085436;28;20032;-64
2022/08/09 02:20:28;;;;;;;2.92;1.20;;;;;;;20.28;nan;101090.63;5073727;28;20493;-63
2022/08/09 02:22:59;;;;;;;3.45;1.30;;;;;;;20.21;nan;101094.31;5079099;28;20108;-63
2022/08/09 02:25:32;;;;;;;3.25;1.38;;;;;;;20.15;nan;101098.66;5082877;28;20051;-63
2022/08/09 02:28:06;;;;;;;3.85;1.30;;;;;;;20.07;nan;101099.66;5082385;28;20059;-64
2022/08/09 02:30:38;;;;;;;4.03;1.30;;;;;;;20.08;nan;101101.31;5079330;28;20493;-64
2022/08/09 02:33:04;;;;;;;4.50;1.40;;;;;;;20.17;nan;101114.56;5075878;28;20040;-64
2022/08/09 02:35:35;;;;;;;2.47;1.40;;;;;;;20.23;nan;101116.44;5076942;28;20024;-63
2022/08/09 02:38:03;;;;;;;2.00;1.20;;;;;;;20.18;nan;101111.66;5079207;28;20035;-64
2022/08/09 02:40:30;;;;;;;2.00;1.20;;;;;;;20.14;nan;101108.56;5075149;28;20420;-64
2022/08/09 02:42:58;;;;;;;2.08;1.30;;;;;;;20.14;nan;101113.94;5083853;28;20036;-64
2022/08/09 02:45:29;;;;;;;3.05;1.40;;;;;;;20.05;nan;101112.47;5069542;28;20047;-64
2022/08/09 02:47:59;;;;;;;2.25;1.10;;;;;;;19.90;nan;101111.75;5089344;28;20040;-64
2022/08/09 02:50:32;;;;;;;1.90;0.98;;;;;;;19.90;nan;101119.81;5076648;28;20402;-64
2022/08/09 02:53:01;;;;;;;1.83;0.90;;;;;;;19.75;nan;101113.75;5075415;28;20077;-64
2022/08/09 02:55:29;;;;;;;3.90;1.00;;;;;;;19.59;nan;101109.47;5080471;28;20040;-64
2022/08/09 02:57:57;;;;;;;1.55;1.10;;;;;;;19.45;nan;101114.78;5080746;28;20059;-64
2022/08/09 03:00:23;;;;;;;1.45;0.93;;;;;;;19.30;nan;101104.13;5083108;28;20047;-63
2022/08/09 03:02:52;;;;;;;1.98;1.05;;;;;;;19.20;nan;101113.56;5076015;28;20063;-64
2022/08/09 03:05:17;;;;;;;1.48;1.00;;;;;;;19.12;nan;101111.03;5076655;28;20028;-64
2022/08/09 03:07:44;;;;;;;2.58;1.02;;;;;;;19.03;nan;101105.78;5079940;28;20561;-64
2022/08/09 03:10:10;;;;;;;2.05;1.17;;;;;;;18.98;nan;101107.41;5076523;28;20036;-64
2022/08/09 03:12:37;;;;;;;1.75;1.00;;;;;;;18.93;nan;101110.66;5078219;28;20055;-63
2022/08/09 03:15:05;;;;;;;1.77;1.08;;;;;;;18.96;nan;101106.75;5077272;28;20044;-64
2022/08/09 03:17:31;;;;;;;2.97;1.30;;;;;;;18.99;nan;101106.38;5084783;28;20131;-64
2022/08/09 03:19:59;;;;;;;2.00;1.23;;;;;;;19.01;nan;101113.19;5080408;28;20032;-64
2022/08/09 03:22:28;;;;;;;2.42;1.38;;;;;;;19.03;nan;101102.28;5076499;28;20116;-64
2022/08/09 03:24:53;;;;;;;2.03;1.35;;;;;;;19.02;nan;101112.19;5062635;28;20032;-64
2022/08/09 03:27:20;;;;;;;5.63;1.38;;;;;;;19.03;nan;101113.00;5079630;28;20066;-64
2022/08/09 03:29:46;;;;;;;2.83;1.45;;;;;;;19.03;nan;101113.00;5079478;28;20067;-64
2022/08/09 03:32:12;;;;;;;2.53;1.40;;;;;;;18.98;nan;101112.75;5078515;28;20028;-64
2022/08/09 03:34:38;;;;;;;1.55;1.00;;;;;;;18.91;nan;101109.19;5077250;28;20055;-64
2022/08/09 03:37:03;;;;;;;2.13;1.20;;;;;;;18.76;nan;101106.53;5072658;28;20040;-64
2022/08/09 03:39:29;;;;;;;1.98;1.20;;;;;;;18.59;nan;101106.78;5078008;28;20551;-63
2022/08/09 03:41:54;;;;;;;1.65;0.93;;;;;;;18.48;nan;101117.19;5079711;28;20044;-63
2022/08/09 03:44:21;;;;;;;2.75;1.23;;;;;;;18.36;nan;101123.00;5071698;28;20034;-64
2022/08/09 03:46:47;;;;;;;2.17;1.20;;;;;;;18.27;nan;101121.47;5076639;28;20501;-64
2022/08/09 03:49:15;;;;;;;2.58;1.20;;;;;;;18.19;nan;101129.63;5051832;28;20044;-64
2022/08/09 03:51:43;;;;;;;1.77;1.20;;;;;;;18.09;nan;101131.72;5079038;28;20131;-64
2022/08/09 03:54:10;;;;;;;2.97;1.10;;;;;;;18.00;nan;101133.69;5076248;28;20036;-63
2022/08/09 03:56:35;;;;;;;2.10;1.05;;;;;;;17.90;nan;101133.97;5075102;28;20062;-64
2022/08/09 03:59:01;;;;;;;1.15;0.90;;;;;;;17.85;nan;101139.03;5079913;28;20044;-63
2022/08/09 04:01:28;;;;;;;1.73;0.98;;;;;;;17.77;nan;101136.44;5060564;28;20042;-63
2022/08/09 04:03:54;;;;;;;1.33;0.90;;;;;;;17.70;nan;101140.84;5076909;28;20036;-63
2022/08/09 04:06:20;;;;;;;2.28;1.17;;;;;;;17.66;nan;101131.53;5081104;28;20043;-63
2022/08/09 04:08:45;;;;;;;2.15;1.20;;;;;;;17.57;nan;101142.31;5079168;28;20047;-64
2022/08/09 04:11:11;;;;;;;1.95;1.10;;;;;;;17.52;nan;101149.22;5071475;28;20041;-63
2022/08/09 04:13:36;;;;;;;1.58;1.00;;;;;;;17.44;nan;101151.97;5081737;28;20484;-63
2022/08/09 04:16:01;;;;;;;1.67;1.15;;;;;;;17.37;nan;101158.03;5085521;28;20028;-66
2022/08/09 04:18:27;;;;;;;2.30;0.95;;;;;;;17.35;nan;101167.25;5085625;28;20040;-64
2022/08/09 04:20:52;;;;;;;1.67;0.93;;;;;;;17.28;nan;101164.50;5083299;28;20036;-64
2022/08/09 04:23:19;;;;;;;1.52;0.98;;;;;;;17.22;nan;101162.53;5079359;28;20040;-64
2022/08/09 04:25:45;;;;;;;2.78;1.10;;;;;;;17.17;nan;101168.41;5081087;28;20040;-64
2022/08/09 04:28:10;;;;;;;3.28;1.10;;;;;;;17.15;nan;101166.91;5076038;28;20029;-64
2022/08/09 04:30:35;;;;;;;2.83;0.90;;;;;;;17.11;nan;101171.81;5076705;28;20437;-63
2022/08/09 04:33:01;;;;;;;2.08;1.25;;;;;;;17.08;nan;101171.31;5079825;28;20048;-63
2022/08/09 04:35:26;;;;;;;1.73;1.17;;;;;;;17.08;nan;101171.31;5081155;28;20040;-63
2022/08/09 04:37:51;;;;;;;2.90;1.20;;;;;;;17.09;nan;101173.81;5082859;28;20037;-64
2022/08/09 04:40:16;;;;;;;2.58;1.27;;;;;;;17.13;nan;101185.78;5083427;28;20631;-63
2022/08/09 04:42:42;;;;;;;3.70;1.20;;;;;;;17.15;nan;101180.28;5078564;28;20132;-64
2022/08/09 04:45:08;;;;;;;1.17;0.80;;;;;;;17.11;nan;101177.16;5089292;28;20063;-63
2022/08/09 04:47:33;;;;;;;1.55;1.20;;;;;;;17.10;nan;101183.50;5078380;28;20036;-64
2022/08/09 04:49:58;;;;;;;1.65;0.93;;;;;;;17.08;nan;101192.69;5082358;28;20055;-63
2022/08/09 04:52:26;;;;;;;3.10;1.10;;;;;;;17.08;nan;101188.19;5082039;28;20043;-64
2022/08/09 04:54:52;;;;;;;;;;;;;;;17.07;nan;101191.88;5082732;28;20484;-64
2022/08/09 04:57:17;;;;;;;2.08;1.30;;;;;;;17.19;nan;101190.44;5087636;28;19966;-64
2022/08/09 04:59:43;;;;;;;1.70;1.23;;;;;;;17.36;nan;101198.34;5082879;28;20028;-64
2022/08/09 05:02:08;;;;;;;3.10;1.33;;;;;;;17.53;nan;101197.16;5082667;28;20043;-64
2022/08/09 05:04:34;;;;;;;3.40;1.40;;;;;;;17.74;nan;101195.66;5084491;28;20028;-64
2022/08/09 05:06:59;;;;;;;2.45;1.40;;;;;;;17.83;nan;101198.09;5093352;28;20032;-64
2022/08/09 05:09:25;;;;;;;1.88;1.10;;;;;;;17.88;nan;101204.75;5086785;28;20138;-64
2022/08/09 05:11:50;;;;;;;1.63;1.23;;;;;;;17.89;nan;101203.72;5081786;28;20043;-63
2022/08/09 05:14:15;;;;;;;;;;;;;;;17.90;nan;101211.56;5081019;28;20028;-64
2022/08/09 05:16:41;;;;;;;2.20;1.33;;;;;;;17.94;nan;101199.47;5093748;28;19919;-64
2022/08/09 05:19:06;;;;;;;2.40;1.50;;;;;;;18.07;nan;101204.19;5080655;28;20475;-64
2022/08/09 05:21:31;;;;;;;3.28;1.40;;;;;;;18.23;nan;101204.00;5079797;28;20443;-64
2022/08/09 05:23:57;;;;;;;3.78;1.40;;;;;;;18.50;nan;101206.19;5087011;28;20048;-64
2022/08/09 05:26:22;;;;;;;2.47;1.40;;;;;;;18.86;nan;101211.59;5071410;28;20106;-64
2022/08/09 05:28:48;;;;;;;2.03;1.10;;;;;;;19.24;nan;101220.22;5079144;28;20192;-63
2022/08/09 05:31:13;;;;;;;3.72;1.58;;;;;;;19.61;nan;101220.13;5086090;28;20047;-64
2022/08/09 05:33:38;;;;;;;2.40;1.50;;;;;;;19.90;nan;101230.69;5082916;28;20249;-64
2022/08/09 05:36:04;;;;;;;3.73;1.87;;;;;;;20.15;nan;101230.22;5086490;28;20283;-64
2022/08/09 05:38:29;;;;;;;3.97;1.40;;;;;;;20.54;nan;101237.63;5075468;28;20449;-64
2022/08/09 05:40:55;;;;;;;2.67;1.40;;;;;;;20.75;nan;101230.53;5080337;28;20048;-64
2022/08/09 05:43:20;;;;;;;;;;;;;;;20.98;nan;101228.31;5059717;28;20021;-64
2022/08/09 05:45:45;;;;;;;2.17;1.00;;;;;;;21.25;nan;101233.75;5080298;28;19924;-64
2022/08/09 05:48:11;;;;;;;2.63;1.60;;;;;;;21.51;nan;101230.28;5079388;28;20040;-64
2022/08/09 05:50:37;;;;;;;2.17;1.50;;;;;;;21.77;nan;101229.44;5083875;28;20441;-64
2022/08/09 05:53:03;;;;;;;2.33;1.15;;;;;;;22.04;nan;101234.78;5081776;28;20456;-65
2022/08/09 05:55:28;;;;;;;2.00;1.38;;;;;;;22.33;nan;101229.97;5085250;28;20052;-64
2022/08/09 05:57:54;;;;;;;3.03;1.60;;;;;;;22.57;nan;101237.34;5081947;28;20113;-64
2022/08/09 06:00:19;;;;;;;2.35;1.40;;;;;;;22.83;nan;101233.69;5084491;28;20036;-64
2022/08/09 06:02:45;;;;;;;3.15;1.40;;;;;;;23.15;nan;101235.63;5089794;28;20054;-64
2022/08/09 06:05:11;;;;;;;3.72;1.45;;;;;;;23.44;nan;101234.97;5089218;28;20444;-64
2022/08/09 06:07:36;;;;;;;2.60;1.40;;;;;;;23.69;nan;101237.69;5081113;28;20119;-64
2022/08/09 06:10:03;;;;;;;2.55;1.65;;;;;;;23.98;nan;101231.81;5109845;28;20281;-64
2022/08/09 06:12:29;;;;;;;4.60;1.50;;;;;;;24.32;nan;101247.47;5099860;28;20115;-65
2022/08/09 06:14:54;;;;;;;3.80;1.70;;;;;;;24.56;nan;101245.75;5089566;28;20117;-64
2022/08/09 06:17:19;;;;;;;2.38;1.40;;;;;;;24.67;nan;101251.44;5090016;28;20040;-64
2022/08/09 06:19:45;;;;;;;4.18;1.60;;;;;;;24.97;nan;101248.75;5089835;28;20663;-65
2022/08/09 06:22:11;;;;;;;2.08;1.40;;;;;;;25.41;nan;101255.63;5089825;28;20039;-65
2022/08/09 06:24:36;;;;;;;3.40;1.20;;;;;;;25.74;nan;101262.38;5086325;28;20064;-65
2022/08/09 06:27:01;;;;;;;2.70;1.50;;;;;;;25.80;nan;101257.91;5069303;28;20044;-64
2022/08/09 06:29:27;;;;;;;3.35;1.20;;;;;;;25.84;nan;101253.66;5070543;28;20123;-64
2022/08/09 06:31:52;;;;;;;3.85;1.15;;;;;;;26.01;nan;101261.94;5089646;28;20082;-65
2022/08/09 06:34:18;;;;;;;3.90;1.40;;;;;;;26.03;nan;101254.41;5088629;28;20187;-65
2022/08/09 06:36:43;;;;;;;4.78;1.33;;;;;;;26.22;nan;101260.50;5070157;28;20501;-65
2022/08/09 06:39:10;;;;;;;1.55;1.00;;;;;;;26.54;nan;101257.38;5070841;28;20049;-65
2022/08/09 06:41:36;;;;;;;2.35;1.30;;;;;;;26.75;nan;101258.63;5087045;28;20086;-65
2022/08/09 06:44:01;;;;;;;3.20;1.02;;;;;;;26.92;nan;101255.97;5089240;28;20028;-64
2022/08/09 06:46:26;;;;;;;1.80;1.13;;;;;;;27.14;nan;101262.31;5088363;28;20040;-65
2022/08/09 06:48:51;;;;;;;3.43;1.13;;;;;;;27.37;nan;101266.84;5079656;28;20275;-65
2022/08/09 06:51:17;;;;;;;2.25;1.17;;;;;;;27.49;nan;101264.03;5084271;28;20263;-65
2022/08/09 06:53:42;;;;;;;2.40;1.30;;;;;;;27.66;nan;101264.84;5077559;28;20040;-65
2022/08/09 06:56:08;;;;;;;2.73;1.00;;;;;;;27.76;nan;101266.91;5073804;28;20347;-65
2022/08/09 06:58:33;;;;;;;2.30;1.25;;;;;;;27.91;nan;101272.63;5075156;28;20297;-65
2022/08/09 07:00:59;;;;;;;1.37;0.90;;;;;;;28.49;nan;101267.72;5088128;28;20451;-65
2022/08/09 07:03:25;;;;;;;1.50;1.08;;;;;;;28.65;nan;101270.59;5083877;28;20040;-65
2022/08/09 07:05:50;;;;;;;1.83;0.98;;;;;;;28.83;nan;101266.72;5068602;28;20406;-65
2022/08/09 07:08:15;;;;;;;;;;;;;;;28.78;nan;101270.22;5070877;28;20266;-65
2022/08/09 07:10:41;;;;;;;2.00;1.03;;;;;;;28.96;nan;101271.75;5088918;28;19987;-65
2022/08/09 07:13:06;;;;;;;2.63;1.10;;;;;;;29.14;nan;101274.16;5087071;28;20044;-65
2022/08/09 07:15:32;;;;;;;2.58;1.38;;;;;;;29.13;nan;101274.44;5069255;28;20059;-65
2022/08/09 07:17:57;;;;;;;1.50;0.90;;;;;;;29.19;nan;101276.09;5069378;28;20272;-65
2022/08/09 07:20:24;;;;;;;2.13;1.00;;;;;;;29.27;nan;101272.06;5070138;28;20056;-65
2022/08/09 07:22:50;;;;;;;2.08;1.20;;;;;;;29.48;nan;101271.16;5073000;28;20032;-66
2022/08/09 07:25:15;;;;;;;2.75;1.10;;;;;;;29.73;nan;101270.59;5088746;28;20403;-65
2022/08/09 07:27:42;;;;;;;1.83;1.23;;;;;;;29.94;nan;101274.28;5087574;28;20032;-65
2022/08/09 07:30:09;;;;;;;2.25;1.15;;;;;;;30.10;nan;101275.16;5067826;28;20098;-66
2022/08/09 07:32:35;;;;;;;2.20;1.20;;;;;;;30.14;nan;101280.94;5068414;28;20494;-65
2022/08/09 07:35:03;;;;;;;2.67;1.20;;;;;;;29.91;nan;101282.97;5085982;28;20032;-65
2022/08/09 07:37:28;;;;;;;2.10;1.10;;;;;;;30.19;nan;101279.03;5070214;28;20044;-65
2022/08/09 07:39:54;;;;;;;3.50;0.97;;;;;;;30.54;nan;101280.31;5087686;28;20036;-65
2022/08/09 07:42:19;;;;;;;3.60;1.30;;;;;;;30.64;nan;101276.81;5087836;28;20387;-66
2022/08/09 07:44:44;;;;;;;2.92;1.13;;;;;;;30.64;nan;101277.63;5083062;28;20515;-65
2022/08/09 07:47:10;;;;;;;2.28;1.20;;;;;;;30.77;nan;101278.19;5098123;28;20077;-65
2022/08/09 07:49:35;;;;;;;1.75;1.00;;;;;;;31.09;nan;101278.84;5087219;28;20066;-65
2022/08/09 07:52:00;;;;;;;1.63;1.10;;;;;;;31.28;nan;101281.88;5083153;28;20055;-65
2022/08/09 07:54:29;;;;;;;2.53;1.25;;;;;;;31.42;nan;101275.91;5081081;28;20047;-65
2022/08/09 07:56:55;;;;;;;1.88;0.90;;;;;;;31.67;nan;101275.06;5089078;28;20040;-65
2022/08/09 07:59:20;;;;;;;2.30;1.10;;;;;;;31.71;nan;101274.22;5087717;28;20044;-65
2022/08/09 08:01:46;;;;;;;2.75;1.20;;;;;;;31.73;nan;101274.78;5086649;28;20032;-65
2022/08/09 08:04:11;;;;;;;1.60;0.90;;;;;;;32.18;nan;101272.25;5093566;28;20025;-66
2022/08/09 08:06:36;;;;;;;1.95;1.02;;;;;;;32.44;nan;101277.59;5087293;28;20353;-65
2022/08/09 08:09:01;;;;;;;3.20;1.10;;;;;;;32.48;nan;101276.78;5088141;28;20047;-65
2022/08/09 08:11:27;;;;;;;2.67;1.10;;;;;;;32.49;nan;101267.47;5069555;28;20403;-66
2022/08/09 08:13:52;;;;;;;1.70;1.10;;;;;;;32.64;nan;101266.59;5092104;28;20039;-65
2022/08/09 08:16:18;;;;;;;1.30;0.88;;;;;;;32.92;nan;101273.28;5088433;28;20653;-65
2022/08/09 08:18:43;;;;;;;1.98;1.20;;;;;;;33.29;nan;101273.88;5092000;28;20373;-65
2022/08/09 08:21:08;;;;;;;3.80;1.00;;;;;;;33.63;nan;101269.22;5082846;28;20114;-65
2022/08/09 08:23:34;;;;;;;2.53;1.00;;;;;;;33.72;nan;101269.38;5075973;28;20373;-66
2022/08/09 08:25:59;;;;;;;2.08;1.08;;;;;;;33.94;nan;101277.09;5050036;28;20293;-65
2022/08/09 08:28:24;;;;;;;2.30;1.00;;;;;;;34.24;nan;101280.66;5103707;28;20090;-65
2022/08/09 08:30:50;;;;;;;2.35;1.08;;;;;;;34.51;nan;101274.53;5074184;28;20390;-65
2022/08/09 08:33:15;;;;;;;3.00;1.00;;;;;;;34.63;nan;101280.44;5097661;28;20096;-65
2022/08/09 08:35:40;;;;;;;1.17;0.85;;;;;;;34.77;nan;101272.28;5110552;28;20056;-66
2022/08/09 08:38:06;;;;;;;4.03;1.17;;;;;;;35.25;nan;101272.13;5081864;28;20089;-66
2022/08/09 08:40:34;;;;;;;1.50;0.90;;;;;;;35.50;nan;101270.06;5101888;28;20031;-65
2022/08/09 08:43:02;;;;;;;2.42;1.30;;;;;;;36.01;nan;101271.88;5089873;28;20252;-66
2022/08/09 08:45:42;;;;;;;1.95;0.98;;;;;;;36.14;nan;101262.03;5087819;28;20504;-65
2022/08/09 08:48:08;;;;;;;1.80;1.00;;;;;;;36.29;nan;101266.41;5070500;28;20040;-66
2022/08/09 08:50:33;;;;;;;1.65;0.90;;;;;;;36.59;nan;101267.72;5080385;28;20287;-65
2022/08/09 08:52:59;;;;;;;1.75;0.90;;;;;;;37.13;nan;101267.84;5079631;28;20036;-65
2022/08/09 08:55:24;;;;;;;1.88;1.05;;;;;;;37.57;nan;101268.97;5097329;28;20386;-65
2022/08/09 08:57:51;;;;;;;1.83;0.98;;;;;;;37.91;nan;101268.31;5094516;28;20047;-66
2022/08/09 09:00:16;;;;;;;1.50;0.80;;;;;;;38.35;nan;101273.97;5106196;28;20401;-66
2022/08/09 09:02:43;;;;;;;1.30;0.80;;;;;;;38.51;nan;101268.84;5098328;28;20390;-65
2022/08/09 09:05:10;;;;;;;3.50;1.10;;;;;;;38.97;nan;101264.63;5094442;28;20800;-66
2022/08/09 09:07:36;;;;;;;1.08;0.70;;;;;;;39.00;nan;101273.09;5073583;28;21036;-65
2022/08/09 09:10:06;;;;;;;2.30;0.77;;;;;;;39.33;nan;101263.44;5088295;28;20393;-65
2022/08/09 09:12:31;;;;;;;;;;;;;;;39.49;nan;101265.38;5099784;28;20032;-66
2022/08/09 09:14:58;;;;;;;;;;;;;;;39.29;nan;101264.09;5107646;28;19924;-66
2022/08/09 09:17:23;;;;;;;5.20;1.30;;;;;;;39.43;nan;101266.72;5101442;28;19919;-66
2022/08/09 09:19:50;;;;;;;1.60;0.90;;;;;;;38.84;nan;101263.66;5075283;28;20035;-66
2022/08/09 09:22:18;;;;;;;;;;;;;;;39.34;nan;101260.34;5086557;28;20035;-66
2022/08/09 09:24:47;;;;;;;;;;;;;;;38.92;nan;101262.84;5089687;28;19919;-66
2022/08/09 09:27:17;;;;;;;;;;;;;;;38.32;nan;101264.38;5077935;28;19938;-66
2022/08/09 09:29:43;;;;;;;;;;;;;;;37.93;nan;101257.75;5090144;28;19969;-66
2022/08/09 09:32:10;;;;;;;2.25;1.10;;;;;;;38.08;nan;101253.75;5082545;28;19912;-66
2022/08/09 09:34:36;;;;;;;2.10;1.10;;;;;;;38.54;nan;101259.88;5098588;28;20128;-65
2022/08/09 09:37:04;;;;;;;5.10;2.20;;;;;;;38.62;nan;101254.38;5110430;28;20042;-66
2022/08/09 09:39:30;;;;;;;2.25;1.08;;;;;;;38.75;nan;101265.59;5104935;28;20032;-65
2022/08/09 09:41:56;;;;;;;2.40;1.10;;;;;;;38.44;nan;101259.03;5097332;28;20031;-66
2022/08/09 09:44:33;;;;;;;1.63;1.08;;;;;;;38.38;nan;101254.00;5089534;28;20578;-66
2022/08/09 09:47:15;;;;;;;1.75;1.00;;;;;;;38.17;nan;101251.84;5088480;28;20750;-65
2022/08/09 09:49:48;;;;;;;2.13;1.10;;;;;;;38.11;nan;101246.78;5070855;28;20578;-65
2022/08/09 09:52:14;;;;;;;1.63;0.93;;;;;;;38.20;nan;101258.66;5100530;28;20096;-65
2022/08/09 09:54:47;;;;;;;3.78;1.20;;;;;;;38.79;nan;101245.28;5094990;28;20634;-65
2022/08/09 09:57:14;;;;;;;2.78;1.20;;;;;;;38.99;nan;101240.22;5089241;28;20492;-66
2022/08/09 09:59:40;;;;;;;;;;;;;;;39.12;nan;101242.03;5088679;28;20432;-66
2022/08/09 10:02:05;;;;;;;;;;;;;;;39.07;nan;101245.75;5097995;28;20299;-68
2022/08/09 10:04:30;;;;;;;3.17;1.10;;;;;;;39.35;nan;101247.31;5089595;28;19963;-66
2022/08/09 10:06:56;;;;;;;1.40;0.90;;;;;;;39.46;nan;101246.66;5071049;28;20408;-66
2022/08/09 10:09:21;;;;;;;3.92;1.10;;;;;;;39.49;nan;101251.53;5090401;28;20032;-66
2022/08/09 10:11:46;;;;;;;;;;;;;;;39.85;nan;101249.47;5091421;28;20092;-66
2022/08/09 10:14:21;;;;;;;;;;;;;;;39.74;nan;101246.25;5090725;28;19927;-66
2022/08/09 10:16:47;;;;;;;;;;;;;;;40.46;nan;101249.94;5078142;28;20384;-66
2022/08/09 10:19:14;;;;;;;1.80;0.90;;;;;;;40.48;nan;101241.31;5076571;28;19923;-66
2022/08/09 10:21:47;;;;;;;1.83;0.80;;;;;;;40.94;nan;101239.44;5071631;28;20032;-66
2022/08/09 10:24:14;;;;;;;1.88;0.93;;;;;;;41.42;nan;101237.16;5070312;28;20052;-66
2022/08/09 10:26:40;;;;;;;1.17;0.85;;;;;;;41.31;nan;101234.00;5071126;28;20086;-66
2022/08/09 10:29:06;;;;;;;2.78;1.10;;;;;;;41.14;nan;101237.78;5070625;28;20427;-66
2022/08/09 10:31:32;;;;;;;3.90;1.00;;;;;;;40.41;nan;101227.97;5071022;28;20028;-66
2022/08/09 10:33:59;;;;;;;1.50;0.90;;;;;;;40.68;nan;101234.94;5068623;28;20396;-65
2022/08/09 10:36:24;;;;;;;;;;;;;;;39.60;nan;101224.31;5069082;28;20044;-66
2022/08/09 10:38:49;;;;;;;3.63;1.00;;;;;;;39.85;nan;101230.88;5069712;28;19913;-66
2022/08/09 10:41:17;;;;;;;4.05;1.10;;;;;;;39.68;nan;101234.53;5090172;28;20043;-66
2022/08/09 10:43:45;;;;;;;2.05;1.08;;;;;;;40.01;nan;101224.78;5090856;28;20488;-66
2022/08/09 10:46:43;;;;;;;1.30;0.90;;;;;;;40.46;nan;101227.75;5090169;28;20032;-67
2022/08/09 10:49:20;;;;;;;1.40;0.80;;;;;;;41.65;nan;101227.28;5089347;28;20435;-66
2022/08/09 10:52:26;;;;;;;4.55;0.90;;;;;;;42.60;nan;101219.53;5080859;28;20063;-66
2022/08/09 10:54:52;;;;;;;3.47;0.90;;;;;;;42.44;nan;101224.22;5021898;28;20497;-66
2022/08/09 10:57:17;;;;;;;1.52;0.90;;;;;;;42.19;nan;101217.88;5069028;28;20032;-66
2022/08/09 10:59:44;;;;;;;1.55;0.90;;;;;;;42.38;nan;101218.09;5070931;28;20048;-64
2022/08/09 11:02:17;;;;;;;1.50;0.80;;;;;;;43.04;nan;101218.75;5088029;28;20173;-66
2022/08/09 11:05:02;;;;;;;1.63;1.00;;;;;;;43.28;nan;101217.03;5089127;28;20076;-66
2022/08/09 11:07:28;;;;;;;2.65;1.00;;;;;;;42.98;nan;101215.44;5089231;28;20032;-66
2022/08/09 11:09:53;;;;;;;1.92;1.00;;;;;;;43.07;nan;101218.03;5088870;28;20093;-64
2022/08/09 11:12:25;;;;;;;1.52;0.90;;;;;;;42.67;nan;101218.09;5088175;28;20063;-64
2022/08/09 11:14:54;;;;;;;2.03;1.00;;;;;;;42.30;nan;101219.00;5088498;28;20102;-66
2022/08/09 11:17:19;;;;;;;1.90;1.00;;;;;;;41.98;nan;101224.41;5080764;28;20040;-63
2022/08/09 11:19:58;;;;;;;1.23;0.80;;;;;;;41.20;nan;101213.44;5095865;28;20405;-66
2022/08/09 11:22:38;;;;;;;3.63;1.30;;;;;;;41.91;nan;101223.34;5082371;28;20043;-66
2022/08/09 11:25:04;;;;;;;;;;;;;;;41.55;nan;101228.56;5085245;28;20405;-65
2022/08/09 11:27:48;;;;;;;1.95;0.95;;;;;;;41.54;nan;101226.09;5072960;28;19916;-66
2022/08/09 11:30:14;;;;;;;2.47;0.88;;;;;;;42.47;nan;101223.50;5067897;28;20047;-66
2022/08/09 11:33:01;;;;;;;3.40;1.40;;;;;;;43.00;nan;101224.25;5068446;28;20493;-63
2022/08/09 11:35:46;;;;;;;3.00;1.20;;;;;;;42.69;nan;101219.34;5067489;28;20102;-66
2022/08/09 11:38:17;;;;;;;2.30;0.90;;;;;;;42.68;nan;101223.31;5067451;28;20052;-66
2022/08/09 11:40:43;;;;;;;1.92;0.75;;;;;;;42.61;nan;101220.31;5083363;28;20028;-66
2022/08/09 11:43:14;;;;;;;1.33;0.90;;;;;;;43.12;nan;101225.31;5088619;28;20032;-66
2022/08/09 11:45:53;;;;;;;1.38;0.90;;;;;;;43.20;nan;101225.19;5089953;28;20032;-66
2022/08/09 11:48:23;;;;;;;1.45;0.80;;;;;;;43.19;nan;101229.09;5091884;28;20522;-66